Time;durP1;ratioP1;P1;durP2;ratioP2;P2;SDS_P1;SDS_P2;PMS_P1;PMS_P2;Temp;Humidity;BMP_temperature;BMP_pressure;BME280_temperature;BME280_humidity;BME280_pressure;Samples;Min_cycle;Max_cycle;Signal;HPM_P1;HPM_P2
2023/07/23 00:01:02;;;;;;;;;;;;;;;-144.99;100.00;52313.56;5029915;28;19931;-69
2023/07/23 00:03:28;;;;;;;;;;;;;;;-144.99;100.00;52276.88;5033126;28;19937;-69
2023/07/23 00:05:55;;;;;;;;;;;;;;;-144.99;100.00;52325.81;5029159;28;19936;-69
2023/07/23 00:08:22;;;;;;;;;;;;;;;-144.99;100.00;52309.50;5026675;28;19929;-69
2023/07/23 00:10:56;;;;;;;;;;;;;;;-144.99;100.00;52305.41;5024594;28;20690;-69
2023/07/23 00:13:22;;;;;;;;;;;;;;;-144.99;100.00;52313.56;5030867;28;20313;-65
2023/07/23 00:15:49;;;;;;;;;;;;;;;-144.99;100.00;52297.25;5027499;28;19936;-64
2023/07/23 00:18:16;;;;;;;;;;;;;;;-144.99;100.00;52317.66;5025163;28;19966;-64
2023/07/23 00:20:42;;;;;;;;;;;;;;;-144.99;100.00;52283.00;5022889;28;19936;-64
2023/07/23 00:23:09;;;;;;;;;;;;;;;-144.99;100.00;52313.56;5020108;28;19925;-64
2023/07/23 00:25:35;;;;;;;;;;;;;;;-144.99;100.00;52305.41;5026330;28;19933;-66
2023/07/23 00:28:04;;;;;;;;;;;;;;;-144.99;100.00;52293.19;5027603;28;20179;-67
2023/07/23 00:30:30;;;;;;;;;;;;;;;-144.99;100.00;52338.03;5022571;28;19948;-67
2023/07/23 00:32:57;;;;;;;;;;;;;;;-144.99;100.00;52342.09;5017778;28;19936;-67
2023/07/23 00:35:23;;;;;;;;;;;;;;;-144.99;100.00;52301.34;5021938;28;19929;-67
2023/07/23 00:37:50;;;;;;;;;;;;;;;-144.99;100.00;52285.03;5021391;28;20188;-67
2023/07/23 00:40:17;;;;;;;;;;;;;;;-144.99;100.00;52313.56;5020626;28;19936;-67
2023/07/23 00:42:43;;;;;;;;;;;;;;;-144.99;100.00;52264.66;5022373;28;19929;-67
2023/07/23 00:45:11;;;;;;;;;;;;;;;-144.99;100.00;52252.44;5015976;28;19940;-67
2023/07/23 00:47:38;;;;;;;;;;;;;;;-144.99;100.00;52297.25;5014670;28;19932;-67
2023/07/23 00:50:05;;;;;;;;;;;;;;;-144.99;100.00;52305.41;5026150;28;19925;-67
2023/07/23 00:52:32;;;;;;;;;;;;;;;-144.99;100.00;52321.72;5022190;28;19929;-74
2023/07/23 00:54:59;;;;;;;;;;;;;;;-144.99;100.00;52293.19;5021721;28;19929;-73
2023/07/23 00:57:26;;;;;;;;;;;;;;;-144.99;100.00;52305.41;5021750;28;19929;-72
2023/07/23 00:59:53;;;;;;;;;;;;;;;-144.99;100.00;52285.03;5016926;28;20298;-72
2023/07/23 01:02:21;;;;;;;;;;;;;;;-144.99;100.00;52317.66;5016473;28;19925;-72
2023/07/23 01:04:48;;;;;;;;;;;;;;;-144.99;100.00;52291.16;5013467;28;20472;-73
2023/07/23 01:07:16;;;;;;;;;;;;;;;-144.99;100.00;52309.50;5015625;28;19929;-72
2023/07/23 01:09:42;;;;;;;;;;;;;;;-144.99;100.00;52321.72;5016250;28;20532;-72
2023/07/23 01:12:10;;;;;;;;;;;;;;;-144.99;100.00;52317.66;5023390;28;19929;-72
2023/07/23 01:14:36;;;;;;;;;;;;;;;-144.99;100.00;52315.59;5022375;28;19933;-72
2023/07/23 01:17:03;;;;;;;;;;;;;;;-144.99;100.00;52309.50;5020355;28;19940;-72
2023/07/23 01:19:31;;;;;;;;;;;;;;;-144.99;100.00;52291.16;5019457;28;19929;-72
2023/07/23 01:22:00;;;;;;;;;;;;;;;-144.99;100.00;52317.66;5018163;28;19933;-72
2023/07/23 01:24:28;;;;;;;;;;;;;;;-144.99;100.00;52313.56;5014483;28;20040;-71
2023/07/23 01:26:54;;;;;;;;;;;;;;;-144.99;100.00;52313.56;5015548;28;20004;-71
2023/07/23 01:29:21;;;;;;;;;;;;;;;-144.99;100.00;52285.03;5015856;28;19929;-71
2023/07/23 01:31:48;;;;;;;;;;;;;;;-144.99;100.00;52321.72;5015135;28;20019;-71
2023/07/23 01:34:14;;;;;;;;;;;;;;;-144.99;100.00;52280.97;5013197;28;20040;-71
2023/07/23 01:36:42;;;;;;;;;;;;;;;-144.99;100.00;52283.00;5014954;28;19925;-71
2023/07/23 01:39:10;;;;;;;;;;;;;;;-144.99;100.00;52321.72;5013273;28;19929;-71
2023/07/23 01:41:37;;;;;;;;;;;;;;;-144.99;100.00;52317.66;5020779;28;19933;-69
2023/07/23 01:44:03;;;;;;;;;;;;;;;-144.99;100.00;52319.69;5010587;28;20345;-69
2023/07/23 01:46:30;;;;;;;;;;;;;;;-144.99;100.00;52295.22;5025898;28;19940;-70
2023/07/23 01:48:57;;;;;;;;;;;;;;;-144.99;100.00;52280.97;4678052;28;9999829;-69
2023/07/23 01:51:23;;;;;;;;;;;;;;;-144.99;100.00;52293.19;5024088;28;19925;-70
2023/07/23 01:53:50;;;;;;;;;;;;;;;-144.99;100.00;52272.81;5026057;28;19926;-68
2023/07/23 01:56:18;;;;;;;;;;;;;;;-144.99;100.00;52297.25;5025172;28;19929;-68
2023/07/23 01:58:44;;;;;;;;;;;;;;;-144.99;100.00;52301.34;5027932;28;19925;-71
2023/07/23 02:01:11;;;;;;;;;;;;;;;-144.99;100.00;52317.66;5025256;28;19955;-69
2023/07/23 02:03:38;;;;;;;;;;;;;;;-144.99;100.00;52305.41;5018572;28;19936;-70
2023/07/23 02:06:04;;;;;;;;;;;;;;;-144.99;100.00;52301.34;5016733;28;19933;-71
2023/07/23 02:08:31;;;;;;;;;;;;;;;-144.99;100.00;52289.13;5017905;28;20294;-73
2023/07/23 02:10:59;;;;;;;;;;;;;;;-144.99;100.00;52309.50;5019875;28;19925;-74
2023/07/23 02:13:27;;;;;;;;;;;;;;;-144.99;100.00;52329.88;5022065;28;19925;-72
2023/07/23 02:15:54;;;;;;;;;;;;;;;-144.99;100.00;52301.34;5018157;28;19925;-72
2023/07/23 02:18:20;;;;;;;;;;;;;;;-144.99;100.00;52289.13;5015584;28;20433;-72
2023/07/23 02:20:47;;;;;;;;;;;;;;;-144.99;100.00;52276.88;5015493;28;19925;-69
2023/07/23 02:23:14;;;;;;;;;;;;;;;-144.99;100.00;52289.13;5022021;28;19940;-68
2023/07/23 02:25:41;;;;;;;;;;;;;;;-144.99;100.00;52313.56;5021881;28;19930;-66
2023/07/23 02:28:09;;;;;;;;;;;;;;;-144.99;100.00;52305.41;5023939;28;19947;-67
2023/07/23 02:30:37;;;;;;;;;;;;;;;-144.99;100.00;52305.41;5025278;28;19951;-68
2023/07/23 02:33:04;;;;;;;;;;;;;;;-144.99;100.00;52317.66;5027806;28;20330;-67
2023/07/23 02:35:31;;;;;;;;;;;;;;;-144.99;100.00;52329.88;5023509;28;20353;-67
2023/07/23 02:37:57;;;;;;;;;;;;;;;-144.99;100.00;52309.50;5027971;28;20326;-68
2023/07/23 02:40:24;;;;;;;;;;;;;;;-144.99;100.00;52313.56;5022010;28;19925;-67
2023/07/23 02:42:50;;;;;;;;;;;;;;;-144.99;100.00;52362.50;5022967;28;20364;-68
2023/07/23 02:45:18;;;;;;;;;;;;;;;-144.99;100.00;52311.53;5015340;28;19940;-68
2023/07/23 02:47:46;;;;;;;;;;;;;;;-144.99;100.00;52278.91;5014462;28;19929;-68
2023/07/23 02:50:12;;;;;;;;;;;;;;;-144.99;100.00;52325.81;5018664;28;19929;-68
2023/07/23 02:52:39;;;;;;;;;;;;;;;-144.99;100.00;52305.41;5028083;28;20284;-69
2023/07/23 02:55:06;;;;;;;;;;;;;;;-144.99;100.00;52276.88;5021726;28;20438;-68
2023/07/23 02:57:32;;;;;;;;;;;;;;;-144.99;100.00;52305.41;5020093;28;20395;-69
2023/07/23 02:59:59;;;;;;;;;;;;;;;-144.99;100.00;52289.13;5018943;28;19929;-69
2023/07/23 03:02:26;;;;;;;;;;;;;;;-144.99;100.00;52325.81;5015639;28;19933;-76
2023/07/23 03:04:54;;;;;;;;;;;;;;;-144.99;100.00;52280.97;5019550;22;19929;-61
2023/07/23 03:07:20;;;;;;;;;;;;;;;-144.99;100.00;52303.38;4999128;28;19925;-61
2023/07/23 03:09:47;;;;;;;;;;;;;;;-144.99;100.00;52278.91;5005618;28;19925;-60
2023/07/23 03:12:14;;;;;;;;;;;;;;;-144.99;100.00;52342.09;5003394;28;19929;-62
2023/07/23 03:14:40;;;;;;;;;;;;;;;-144.99;100.00;52331.91;5004035;28;20437;-62
2023/07/23 03:17:07;;;;;;;;;;;;;;;-144.99;100.00;52325.81;5004287;28;19948;-62
2023/07/23 03:19:34;;;;;;;;;;;;;;;-144.99;100.00;52285.03;5001525;28;20010;-61
2023/07/23 03:22:02;;;;;;;;;;;;;;;-144.99;100.00;52297.25;4996303;28;19949;-65
2023/07/23 03:24:28;;;;;;;;;;;;;;;-144.99;100.00;52313.56;4997241;28;20411;-67
2023/07/23 03:26:55;;;;;;;;;;;;;;;-144.99;100.00;52305.41;4998255;28;19930;-66
2023/07/23 03:29:21;;;;;;;;;;;;;;;-144.99;100.00;52331.91;4998532;28;20037;-67
2023/07/23 03:31:48;;;;;;;;;;;;;;;-144.99;100.00;52264.66;4998727;28;19925;-66
2023/07/23 03:34:15;;;;;;;;;;;;;;;-144.99;100.00;52317.66;4997057;28;19933;-68
2023/07/23 03:36:41;;;;;;;;;;;;;;;-144.99;100.00;52329.88;4999524;28;20314;-62
2023/07/23 03:39:14;;;;;;;;;;;;;;;-144.99;100.00;52276.88;4998343;28;20323;-60
2023/07/23 03:41:40;;;;;;;;;;;;;;;-144.99;100.00;52301.34;4997698;28;19933;-62
2023/07/23 03:44:07;;;;;;;;;;;;;;;-144.99;100.00;52309.50;4997630;28;19925;-60
2023/07/23 03:46:33;;;;;;;;;;;;;;;-144.99;100.00;52289.13;4996430;28;19937;-60
2023/07/23 03:49:00;;;;;;;;;;;;;;;-144.99;100.00;52338.03;4996598;28;20101;-60
2023/07/23 03:51:27;;;;;;;;;;;;;;;-144.99;100.00;52248.34;5003667;28;19930;-60
2023/07/23 03:53:53;;;;;;;;;;;;;;;-144.99;100.00;52329.88;5002784;28;19952;-60
2023/07/23 03:56:21;;;;;;;;;;;;;;;-144.99;100.00;52305.41;5002869;28;19929;-63
2023/07/23 03:58:48;;;;;;;;;;;;;;;-144.99;100.00;52268.72;5003172;28;19932;-64
2023/07/23 04:01:14;;;;;;;;;;;;;;;-144.99;100.00;52321.72;4999045;28;20306;-64
2023/07/23 04:03:41;;;;;;;;;;;;;;;-144.99;100.00;52338.03;5004489;28;19926;-63
2023/07/23 04:06:08;;;;;;;;;;;;;;;-144.99;100.00;52313.56;4996693;28;20278;-63
2023/07/23 04:08:34;;;;;;;;;;;;;;;-144.99;100.00;52289.13;4995781;28;20001;-62
2023/07/23 04:11:01;;;;;;;;;;;;;;;-144.99;100.00;52315.59;4998778;28;20271;-63
2023/07/23 04:13:29;;;;;;;;;;;;;;;-144.99;100.00;52289.13;5005975;28;20410;-64
2023/07/23 04:15:55;;;;;;;;;;;;;;;-144.99;100.00;52360.44;5004566;28;19941;-64
2023/07/23 04:18:22;;;;;;;;;;;;;;;-144.99;100.00;52313.56;5000507;28;19926;-61
2023/07/23 04:20:49;;;;;;;;;;;;;;;-144.99;100.00;52321.72;4998727;28;19949;-62
2023/07/23 04:23:15;;;;;;;;;;;;;;;-144.99;100.00;52297.25;4999962;28;21583;-63
2023/07/23 04:25:42;;;;;;;;;;;;;;;-144.99;100.00;52307.47;5001181;28;19933;-62
2023/07/23 04:28:08;;;;;;;;;;;;;;;-144.99;100.00;52285.03;5001325;28;19932;-62
2023/07/23 04:30:37;;;;;;;;;;;;;;;-144.99;100.00;52317.66;5000389;28;19929;-62
2023/07/23 04:33:03;;;;;;;;;;;;;;;-144.99;100.00;52317.66;5000565;28;20021;-63
2023/07/23 04:35:30;;;;;;;;;;;;;;;-144.99;100.00;52307.47;4999747;28;20391;-63
2023/07/23 04:37:57;;;;;;;;;;;;;;;-144.99;100.00;52285.03;4999235;28;19929;-61
2023/07/23 04:40:23;;;;;;;;;;;;;;;-144.99;100.00;52297.25;5000146;28;20332;-60
2023/07/23 04:42:50;;;;;;;;;;;;;;;-144.99;100.00;52280.97;4999398;28;19972;-60
2023/07/23 04:45:16;;;;;;;;;;;;;;;-144.99;100.00;52289.13;5000206;28;19926;-60
2023/07/23 04:47:44;;;;;;;;;;;;;;;-144.99;100.00;52276.88;4999601;28;19925;-61
2023/07/23 04:50:11;;;;;;;;;;;;;;;-144.99;100.00;52333.94;4999520;28;19949;-62
2023/07/23 04:52:38;;;;;;;;;;;;;;;-144.99;100.00;52295.22;5000127;28;19975;-62
2023/07/23 04:55:07;;;;;;;;;;;;;;;-144.99;100.00;52272.81;5004697;28;19933;-62
2023/07/23 04:57:33;;;;;;;;;;;;;;;-144.99;100.00;52287.06;4993112;28;20016;-62
2023/07/23 05:00:00;;;;;;;;;;;;;;;-144.99;100.00;52313.56;5009328;28;19937;-70
2023/07/23 05:02:27;;;;;;;;;;;;;;;-144.99;100.00;52305.41;5008816;28;19926;-68
2023/07/23 05:04:55;;;;;;;;;;;;;;;-144.99;100.00;52348.22;5011681;28;19949;-71
2023/07/23 05:07:21;;;;;;;;;;;;;;;-144.99;100.00;52331.91;5013211;28;19941;-70
2023/07/23 05:09:48;;;;;;;;;;;;;;;-144.99;100.00;52280.97;5011061;28;19932;-62
2023/07/23 05:12:15;;;;;;;;;;;;;;;-144.99;100.00;52313.56;5009918;28;19952;-62
2023/07/23 05:14:41;;;;;;;;;;;;;;;-144.99;100.00;52329.88;5009952;28;19932;-61
2023/07/23 05:17:08;;;;;;;;;;;;;;;-144.99;100.00;52329.88;5007707;28;19984;-62
2023/07/23 05:19:34;;;;;;;;;;;;;;;-144.99;100.00;52311.53;5009465;28;19926;-62
2023/07/23 05:22:02;;;;;;;;;;;;;;;-144.99;100.00;52307.47;5009683;28;19941;-65
2023/07/23 05:24:29;;;;;;;;;;;;;;;-144.99;100.00;52329.88;5010093;28;20307;-65
2023/07/23 05:26:56;;;;;;;;;;;;;;;-144.99;100.00;52287.06;4990686;28;19929;-65
2023/07/23 05:29:22;;;;;;;;;;;;;;;-144.99;100.00;52285.03;5009607;28;20252;-64
2023/07/23 05:31:49;;;;;;;;;;;;;;;-144.99;100.00;52325.81;5005234;28;19941;-64
2023/07/23 05:34:16;;;;;;;;;;;;;;;-144.99;100.00;52280.97;5005674;28;19933;-66
2023/07/23 05:36:43;;;;;;;;;;;;;;;-144.99;100.00;52309.50;5005151;28;19929;-61
2023/07/23 05:39:11;;;;;;;;;;;;;;;-144.99;100.00;52329.88;4999293;28;20096;-62
2023/07/23 05:41:37;;;;;;;;;;;;;;;-144.99;100.00;52344.16;5001479;28;19989;-63
2023/07/23 05:44:04;;;;;;;;;;;;;;;-144.99;100.00;52333.94;5009223;28;20397;-63
2023/07/23 05:46:31;;;;;;;;;;;;;;;-144.99;100.00;52297.25;5009290;28;20243;-63
2023/07/23 05:48:57;;;;;;;;;;;;;;;-144.99;100.00;52346.19;5014398;28;19932;-63
2023/07/23 05:51:24;;;;;;;;;;;;;;;-144.99;100.00;52331.91;5011072;28;19933;-62
2023/07/23 05:53:51;;;;;;;;;;;;;;;-144.99;100.00;52305.41;5007257;28;19932;-63
2023/07/23 05:56:19;;;;;;;;;;;;;;;-144.99;100.00;52297.25;5009321;28;19925;-62
2023/07/23 05:58:45;;;;;;;;;;;;;;;-144.99;100.00;52297.25;5005692;28;19929;-62
2023/07/23 06:01:12;;;;;;;;;;;;;;;-144.99;100.00;52307.47;5007454;28;20278;-65
2023/07/23 06:03:38;;;;;;;;;;;;;;;-144.99;100.00;52329.88;5006721;28;20033;-63
2023/07/23 06:06:05;;;;;;;;;;;;;;;-144.99;100.00;52309.50;4988051;28;19953;-62
2023/07/23 06:08:32;;;;;;;;;;;;;;;-144.99;100.00;52327.84;5013817;28;19936;-62
2023/07/23 06:10:58;;;;;;;;;;;;;;;-144.99;100.00;52333.94;5009136;28;19937;-62
2023/07/23 06:13:26;;;;;;;;;;;;;;;-144.99;100.00;52244.28;5007886;28;19941;-63
2023/07/23 06:15:53;;;;;;;;;;;;;;;-144.99;100.00;52346.19;5007978;28;19925;-62
2023/07/23 06:18:19;;;;;;;;;;;;;;;-144.99;100.00;52264.66;5016809;28;19936;-62
2023/07/23 06:20:46;;;;;;;;;;;;;;;-144.99;100.00;52272.81;5009620;28;20422;-63
2023/07/23 06:23:13;;;;;;;;;;;;;;;-144.99;100.00;52297.25;5007608;28;19925;-63
2023/07/23 06:25:40;;;;;;;;;;;;;;;-144.99;100.00;52293.19;5007718;28;19940;-64
2023/07/23 06:28:07;;;;;;;;;;;;;;;-144.99;100.00;52293.19;5008939;28;19957;-64
2023/07/23 06:30:35;;;;;;;;;;;;;;;-144.99;100.00;52313.56;5009648;28;19936;-64
2023/07/23 06:33:02;;;;;;;;;;;;;;;-144.99;100.00;52285.03;5008783;28;19929;-64
2023/07/23 06:35:29;;;;;;;;;;;;;;;-144.99;100.00;52305.41;5003693;28;19933;-64
2023/07/23 06:37:55;;;;;;;;;;;;;;;-144.99;100.00;52301.34;4995449;28;19941;-62
2023/07/23 06:40:22;;;;;;;;;;;;;;;-144.99;100.00;52325.81;4994667;28;21448;-63
2023/07/23 06:42:49;;;;;;;;;;;;;;;-144.99;100.00;52307.47;4995252;28;20057;-62
2023/07/23 06:45:16;;;;;;;;;;;;;;;-144.99;100.00;52309.50;4995344;28;20031;-62
2023/07/23 06:47:44;;;;;;;;;;;;;;;-144.99;100.00;52276.88;4993970;28;20297;-61
2023/07/23 06:50:11;;;;;;;;;;;;;;;-144.99;100.00;52305.41;4997764;28;20300;-58
2023/07/23 06:52:37;;;;;;;;;;;;;;;-144.99;100.00;52295.22;4994335;28;19940;-64
2023/07/23 06:55:04;;;;;;;;;;;;;;;-144.99;100.00;52293.19;4993573;28;19948;-64
2023/07/23 06:57:31;;;;;;;;;;;;;;;-144.99;100.00;52287.06;4994844;28;20670;-64
2023/07/23 06:59:58;;;;;;;;;;;;;;;-144.99;100.00;52317.66;4998276;28;20326;-63
2023/07/23 07:02:24;;;;;;;;;;;;;;;-144.99;100.00;52313.56;4998026;28;20547;-63
2023/07/23 07:04:52;;;;;;;;;;;;;;;-144.99;100.00;52301.34;4995171;28;19933;-64
2023/07/23 07:07:19;;;;;;;;;;;;;;;-144.99;100.00;52301.34;4994620;28;19925;-64
2023/07/23 07:09:45;;;;;;;;;;;;;;;-144.99;100.00;52315.59;4995739;28;19930;-63
2023/07/23 07:12:12;;;;;;;;;;;;;;;-144.99;100.00;52321.72;4995888;28;20181;-64
2023/07/23 07:14:39;;;;;;;;;;;;;;;-144.99;100.00;52285.03;4996099;28;19933;-63
2023/07/23 07:17:05;;;;;;;;;;;;;;;-144.99;100.00;52260.56;4993506;28;19934;-64
2023/07/23 07:19:32;;;;;;;;;;;;;;;-144.99;100.00;52278.91;4993497;28;20298;-64
2023/07/23 07:22:00;;;;;;;;;;;;;;;-144.99;100.00;52321.72;4995049;28;19930;-65
2023/07/23 07:24:27;;;;;;;;;;;;;;;-144.99;100.00;52305.41;4995754;28;19925;-65
2023/07/23 07:26:54;;;;;;;;;;;;;;;-144.99;100.00;52313.56;5002610;28;19929;-64
2023/07/23 07:29:20;;;;;;;;;;;;;;;-144.99;100.00;52287.06;5007713;28;20339;-64
2023/07/23 07:31:48;;;;;;;;;;;;;;;-144.99;100.00;52297.25;4998474;28;19936;-65
2023/07/23 07:34:14;;;;;;;;;;;;;;;-144.99;100.00;52333.94;4997051;28;20418;-65
2023/07/23 07:36:41;;;;;;;;;;;;;;;-144.99;100.00;52285.03;4996853;28;19933;-63
2023/07/23 07:39:09;;;;;;;;;;;;;;;-144.99;100.00;52289.13;5000239;28;20017;-64
2023/07/23 07:41:36;;;;;;;;;;;;;;;-144.99;100.00;52321.72;5010686;28;19933;-64
2023/07/23 07:44:02;;;;;;;;;;;;;;;-144.99;100.00;52311.53;5007745;28;19980;-64
2023/07/23 07:46:29;;;;;;;;;;;;;;;-144.99;100.00;52260.56;5007139;28;20338;-64
2023/07/23 07:48:55;;;;;;;;;;;;;;;-144.99;100.00;52293.19;5006386;28;19929;-64
2023/07/23 07:51:22;;;;;;;;;;;;;;;-144.99;100.00;52293.19;5005426;28;20073;-64
2023/07/23 07:53:49;;;;;;;;;;;;;;;-144.99;100.00;52305.41;5007540;28;20398;-64
2023/07/23 07:56:17;;;;;;;;;;;;;;;-144.99;100.00;52252.44;5009108;28;19937;-63
2023/07/23 07:58:44;;;;;;;;;;;;;;;-144.99;100.00;52287.06;5012366;28;19933;-64
2023/07/23 08:01:11;;;;;;;;;;;;;;;-144.99;100.00;52268.72;5007557;28;19960;-64
2023/07/23 08:03:38;;;;;;;;;;;;;;;-144.99;100.00;52321.72;5011721;28;20401;-65
2023/07/23 08:06:05;;;;;;;;;;;;;;;-144.99;100.00;52297.25;5009698;28;19929;-64
2023/07/23 08:08:33;;;;;;;;;;;;;;;-144.99;100.00;52289.13;5009907;28;20421;-65
2023/07/23 08:11:01;;;;;;;;;;;;;;;-144.99;100.00;52285.03;5009632;28;20411;-66
2023/07/23 08:13:29;;;;;;;;;;;;;;;-144.99;100.00;52276.88;5011255;28;19940;-66
2023/07/23 08:15:56;;;;;;;;;;;;;;;-144.99;100.00;52260.56;5010890;28;20133;-65
2023/07/23 08:18:23;;;;;;;;;;;;;;;-144.99;100.00;52285.03;5009527;28;19958;-67
2023/07/23 08:20:51;;;;;;;;;;;;;;;-144.99;100.00;52317.66;5010351;28;20353;-71
2023/07/23 08:23:18;;;;;;;;;;;;;;;-144.99;100.00;52297.25;5009221;28;19994;-70
2023/07/23 08:25:48;;;;;;;;;;;;;;;-144.99;100.00;52272.81;5009576;28;19990;-70
2023/07/23 08:28:17;;;;;;;;;;;;;;;-144.99;100.00;52264.66;5010285;28;20381;-70
2023/07/23 08:30:45;;;;;;;;;;;;;;;-144.99;100.00;52276.88;5002200;28;19963;-73
2023/07/23 08:33:12;;;;;;;;;;;;;;;-144.99;100.00;52321.72;5012728;28;19929;-72
2023/07/23 08:35:39;;;;;;;;;;;;;;;-144.99;100.00;52289.13;5009156;28;19989;-74
2023/07/23 08:38:05;;;;;;;;;;;;;;;-144.99;100.00;52325.81;5013438;28;20288;-73
2023/07/23 08:40:36;;;;;;;;;;;;;;;-144.99;100.00;52272.81;5008469;28;19961;-74
2023/07/23 08:43:21;;;;;;;;;;;;;;;-144.99;100.00;52248.34;5008816;28;20432;-74
2023/07/23 08:46:02;;;;;;;;;;;;;;;-144.99;100.00;52311.53;5002107;28;19936;-73
2023/07/23 08:48:40;;;;;;;;;;;;;;;-144.99;100.00;52262.63;5011884;28;20063;-74
2023/07/23 08:51:07;;;;;;;;;;;;;;;-144.99;100.00;52303.38;5012027;28;19959;-74
2023/07/23 08:53:33;;;;;;;;;;;;;;;-144.99;100.00;52297.25;5009075;28;19936;-74
2023/07/23 08:56:00;;;;;;;;;;;;;;;-144.99;100.00;52305.41;5008775;28;20016;-72
2023/07/23 08:58:27;;;;;;;;;;;;;;;-144.99;100.00;52309.50;5007865;28;19940;-73
2023/07/23 09:00:53;;;;;;;;;;;;;;;-144.99;100.00;52297.25;4315023;28;10000651;-73
2023/07/23 09:03:21;;;;;;;;;;;;;;;-144.99;100.00;52299.31;5005993;28;19935;-74
2023/07/23 09:05:49;;;;;;;;;;;;;;;-144.99;100.00;52280.97;5005459;28;19933;-73
2023/07/23 09:08:16;;;;;;;;;;;;;;;-144.99;100.00;52301.34;5004876;28;19929;-73
2023/07/23 09:10:42;;;;;;;;;;;;;;;-144.99;100.00;52299.31;5009755;28;19929;-73
2023/07/23 09:13:11;;;;;;;;;;;;;;;-144.99;100.00;52289.13;5005744;28;19937;-74
2023/07/23 09:15:38;;;;;;;;;;;;;;;-144.99;100.00;52309.50;5005260;28;19934;-73
2023/07/23 09:18:04;;;;;;;;;;;;;;;-144.99;100.00;52244.28;5010526;28;20015;-73
2023/07/23 09:20:31;;;;;;;;;;;;;;;-144.99;100.00;52305.41;5003894;28;19929;-73
2023/07/23 09:23:04;;;;;;;;;;;;;;;-144.99;100.00;52309.50;5012040;28;19944;-73
2023/07/23 09:25:31;;;;;;;;;;;;;;;-144.99;100.00;52280.97;5005671;28;19929;-73
2023/07/23 09:27:58;;;;;;;;;;;;;;;-144.99;100.00;52285.03;5007036;28;19933;-74
2023/07/23 09:30:25;;;;;;;;;;;;;;;-144.99;100.00;52280.97;5008740;28;19926;-74
2023/07/23 09:32:56;;;;;;;;;;;;;;;-144.99;100.00;52289.13;5006391;28;19933;-74
2023/07/23 09:35:24;;;;;;;;;;;;;;;-144.99;100.00;52285.03;5006741;28;19925;-72
2023/07/23 09:37:55;;;;;;;;;;;;;;;-144.99;100.00;52309.50;5005964;28;19930;-74
2023/07/23 09:40:32;;;;;;;;;;;;;;;-144.99;100.00;52264.66;5004035;28;19929;-74
2023/07/23 09:42:59;;;;;;;;;;;;;;;-144.99;100.00;52276.88;5005211;28;20161;-74
2023/07/23 09:45:26;;;;;;;;;;;;;;;-144.99;100.00;52283.00;5005132;28;19929;-74
2023/07/23 09:47:53;;;;;;;;;;;;;;;-144.99;100.00;52252.44;5006173;28;19977;-72
2023/07/23 09:50:20;;;;;;;;;;;;;;;-144.99;100.00;52285.03;5008585;28;19952;-74
2023/07/23 09:52:51;;;;;;;;;;;;;;;-144.99;100.00;52260.56;5009837;28;19929;-73
2023/07/23 09:55:18;;;;;;;;;;;;;;;-144.99;100.00;52260.56;5005887;28;19926;-73
2023/07/23 09:57:48;;;;;;;;;;;;;;;-144.99;100.00;52295.22;5005803;28;20464;-73
2023/07/23 10:00:15;;;;;;;;;;;;;;;-144.99;100.00;52301.34;5012725;28;19929;-72
2023/07/23 10:02:43;;;;;;;;;;;;;;;-144.99;100.00;52285.03;5006364;28;19930;-73
2023/07/23 10:05:11;;;;;;;;;;;;;;;-144.99;100.00;52256.50;5006430;28;19968;-75
2023/07/23 10:07:39;;;;;;;;;;;;;;;-144.99;100.00;52278.91;5005222;28;19933;-73
2023/07/23 10:10:06;;;;;;;;;;;;;;;-144.99;100.00;52268.72;5007723;28;19929;-73
2023/07/23 10:12:33;;;;;;;;;;;;;;;-144.99;100.00;52268.72;5012028;28;19933;-73
2023/07/23 10:15:01;;;;;;;;;;;;;;;-144.99;100.00;52276.88;5012342;28;19954;-73
2023/07/23 10:17:28;;;;;;;;;;;;;;;-144.99;100.00;52280.97;5006529;28;19929;-73
2023/07/23 10:19:56;;;;;;;;;;;;;;;-144.99;100.00;52260.56;5006392;28;20004;-73
2023/07/23 10:22:23;;;;;;;;;;;;;;;-144.99;100.00;52280.97;5007627;28;19929;-73
2023/07/23 10:24:51;;;;;;;;;;;;;;;-144.99;100.00;52287.06;5006537;28;20213;-73
2023/07/23 10:27:18;;;;;;;;;;;;;;;-144.99;100.00;52256.50;5003087;28;20391;-76
2023/07/23 10:29:59;;;;;;;;;;;;;;;-144.99;100.00;52285.03;5004650;28;19933;-73
2023/07/23 10:32:27;;;;;;;;;;;;;;;-144.99;100.00;52293.19;5003720;28;19931;-74
2023/07/23 10:34:54;;;;;;;;;;;;;;;-144.99;100.00;52293.19;4988440;28;19925;-74
2023/07/23 10:37:22;;;;;;;;;;;;;;;-144.99;100.00;52280.97;4998700;28;19929;-73
2023/07/23 10:39:49;;;;;;;;;;;;;;;-144.99;100.00;52248.34;5000057;28;19991;-73
2023/07/23 10:42:41;;;;;;;;;;;;;;;-144.99;100.00;52333.94;4997687;28;19930;-73
2023/07/23 10:45:24;;;;;;;;;;;;;;;-144.99;100.00;52285.03;4975725;28;19981;-73
2023/07/23 10:47:53;;;;;;;;;;;;;;;-144.99;100.00;52240.19;4999112;28;19929;-72
2023/07/23 10:50:20;;;;;;;;;;;;;;;-144.99;100.00;52250.38;4997186;28;19944;-72
2023/07/23 10:52:49;;;;;;;;;;;;;;;-144.99;100.00;52244.28;4992551;28;19933;-73
2023/07/23 10:55:32;;;;;;;;;;;;;;;-144.99;100.00;52289.13;4993002;28;19941;-72
2023/07/23 10:58:00;;;;;;;;;;;;;;;-144.99;100.00;52268.72;4996791;28;21976;-74
2023/07/23 11:00:27;;;;;;;;;;;;;;;-144.99;100.00;52260.56;4998316;28;19929;-73
2023/07/23 11:02:57;;;;;;;;;;;;;;;-144.99;100.00;52248.34;5000943;28;19933;-73
2023/07/23 11:05:23;;;;;;;;;;;;;;;-144.99;100.00;52276.88;4997616;28;19937;-73
2023/07/23 11:08:05;;;;;;;;;;;;;;;-144.99;100.00;52291.16;4998417;28;19976;-72
2023/07/23 11:10:45;;;;;;;;;;;;;;;-144.99;100.00;52227.97;4997659;28;20035;-72
2023/07/23 11:13:11;;;;;;;;;;;;;;;-144.99;100.00;52313.56;4998255;28;19930;-73
2023/07/23 11:15:38;;;;;;;;;;;;;;;-144.99;100.00;52260.56;4998753;28;19933;-73
2023/07/23 11:18:07;;;;;;;;;;;;;;;-144.99;100.00;52258.53;4999309;28;20315;-73
2023/07/23 11:20:33;;;;;;;;;;;;;;;-144.99;100.00;52305.41;5003872;28;19936;-73
2023/07/23 11:23:00;;;;;;;;;;;;;;;-144.99;100.00;52280.97;5003338;28;19929;-73
2023/07/23 11:25:27;;;;;;;;;;;;;;;-144.99;100.00;52264.66;5005875;28;19941;-73
2023/07/23 11:27:53;;;;;;;;;;;;;;;-144.99;100.00;52289.13;5005434;28;19933;-73
2023/07/23 11:30:20;;;;;;;;;;;;;;;-144.99;100.00;52264.66;5005443;28;19941;-73
2023/07/23 11:32:48;;;;;;;;;;;;;;;-144.99;100.00;52268.72;5006858;28;20547;-73
2023/07/23 11:35:17;;;;;;;;;;;;;;;-144.99;100.00;52301.34;5009505;28;19940;-73
2023/07/23 11:37:47;;;;;;;;;;;;;;;-144.99;100.00;52307.47;5009051;28;19933;-74
2023/07/23 11:40:17;;;;;;;;;;;;;;;-144.99;100.00;52293.19;5011150;28;19952;-73
2023/07/23 11:42:44;;;;;;;;;;;;;;;-144.99;100.00;52287.06;5001843;28;19999;-74
2023/07/23 11:45:10;;;;;;;;;;;;;;;-144.99;100.00;52289.13;5009290;28;19936;-73
2023/07/23 11:47:47;;;;;;;;;;;;;;;-144.99;100.00;52299.31;5005284;28;19929;-73
2023/07/23 11:50:13;;;;;;;;;;;;;;;-144.99;100.00;52289.13;5002954;28;20095;-72
2023/07/23 11:52:42;;;;;;;;;;;;;;;-144.99;100.00;52244.28;5004102;28;20429;-73
2023/07/23 11:55:18;;;;;;;;;;;;;;;-144.99;100.00;52285.03;5009091;28;19929;-73
2023/07/23 11:57:45;;;;;;;;;;;;;;;-144.99;100.00;52285.03;5005315;28;20045;-74
2023/07/23 12:00:12;;;;;;;;;;;;;;;-144.99;100.00;52240.19;5009521;28;19936;-74
2023/07/23 12:02:39;;;;;;;;;;;;;;;-144.99;100.00;52268.72;5009355;28;19957;-74
2023/07/23 12:05:06;;;;;;;;;;;;;;;-144.99;100.00;52285.03;5008126;28;19926;-75
2023/07/23 12:07:33;;;;;;;;;;;;;;;-144.99;100.00;52305.41;5003735;28;20001;-74
2023/07/23 12:10:01;;;;;;;;;;;;;;;-144.99;100.00;52264.66;5008587;28;20301;-75
2023/07/23 12:12:28;;;;;;;;;;;;;;;-144.99;100.00;52325.81;5008086;28;20723;-74
2023/07/23 12:15:01;;;;;;;;;;;;;;;-144.99;100.00;52297.25;5009791;28;19936;-72
2023/07/23 12:17:28;;;;;;;;;;;;;;;-144.99;100.00;52285.03;5006194;28;19936;-75
2023/07/23 12:19:54;;;;;;;;;;;;;;;-144.99;100.00;52285.03;5003037;28;20002;-75